sensor_id;sensor_type;location;lat;lon;timestamp;pressure;altitude;pressure_sealevel;temperature;humidity
43436;BME280;36399;51.444;-2.018;2023-02-16T00:00:39;101518.69;;;5.78;100.00
43436;BME280;36399;51.444;-2.018;2023-02-16T00:03:10;101520.00;;;5.69;100.00
43436;BME280;36399;51.444;-2.018;2023-02-16T00:05:36;101511.28;;;5.69;100.00
43436;BME280;36399;51.444;-2.018;2023-02-16T00:08:02;101512.84;;;5.65;100.00
43436;BME280;36399;51.444;-2.018;2023-02-16T00:10:33;101509.59;;;5.69;100.00
43436;BME280;36399;51.444;-2.018;2023-02-16T00:12:59;101499.97;;;5.68;100.00
43436;BME280;36399;51.444;-2.018;2023-02-16T00:15:44;101496.34;;;5.65;100.00
43436;BME280;36399;51.444;-2.018;2023-02-16T00:18:19;101492.69;;;5.61;100.00
43436;BME280;36399;51.444;-2.018;2023-02-16T00:20:47;101494.03;;;5.53;100.00
43436;BME280;36399;51.444;-2.018;2023-02-16T00:23:13;101483.69;;;5.55;100.00
43436;BME280;36399;51.444;-2.018;2023-02-16T00:25:39;101477.56;;;5.54;100.00
43436;BME280;36399;51.444;-2.018;2023-02-16T00:28:16;101471.63;;;5.57;100.00
43436;BME280;36399;51.444;-2.018;2023-02-16T00:30:43;101477.56;;;5.54;100.00
43436;BME280;36399;51.444;-2.018;2023-02-16T00:33:18;101470.00;;;5.59;100.00
43436;BME280;36399;51.444;-2.018;2023-02-16T00:35:44;101469.25;;;5.61;100.00
43436;BME280;36399;51.444;-2.018;2023-02-16T00:38:11;101476.91;;;5.58;100.00
43436;BME280;36399;51.444;-2.018;2023-02-16T00:40:37;101458.91;;;5.63;100.00
43436;BME280;36399;51.444;-2.018;2023-02-16T00:43:04;101460.91;;;5.68;100.00
43436;BME280;36399;51.444;-2.018;2023-02-16T00:45:33;101452.13;;;5.66;100.00
43436;BME280;36399;51.444;-2.018;2023-02-16T00:48:02;101449.28;;;5.62;100.00
43436;BME280;36399;51.444;-2.018;2023-02-16T00:50:32;101449.53;;;5.66;100.00
43436;BME280;36399;51.444;-2.018;2023-02-16T00:52:59;101450.34;;;5.65;100.00
43436;BME280;36399;51.444;-2.018;2023-02-16T00:55:37;101435.53;;;5.64;100.00
43436;BME280;36399;51.444;-2.018;2023-02-16T00:58:10;101422.66;;;5.67;100.00
43436;BME280;36399;51.444;-2.018;2023-02-16T01:00:52;101420.38;;;5.74;100.00
43436;BME280;36399;51.444;-2.018;2023-02-16T01:03:23;101410.38;;;5.83;100.00
43436;BME280;36399;51.444;-2.018;2023-02-16T01:05:50;101401.38;;;5.76;100.00
43436;BME280;36399;51.444;-2.018;2023-02-16T01:08:40;101398.84;;;5.78;100.00
43436;BME280;36399;51.444;-2.018;2023-02-16T01:11:25;101391.84;;;5.77;100.00
43436;BME280;36399;51.444;-2.018;2023-02-16T01:13:53;101385.88;;;5.79;100.00
43436;BME280;36399;51.444;-2.018;2023-02-16T01:16:25;101376.34;;;5.80;100.00
43436;BME280;36399;51.444;-2.018;2023-02-16T01:18:52;101369.50;;;5.82;100.00
43436;BME280;36399;51.444;-2.018;2023-02-16T01:21:19;101378.81;;;5.77;100.00
43436;BME280;36399;51.444;-2.018;2023-02-16T01:23:47;101368.41;;;5.77;100.00
43436;BME280;36399;51.444;-2.018;2023-02-16T01:26:18;101359.22;;;5.85;100.00
43436;BME280;36399;51.444;-2.018;2023-02-16T01:28:45;101363.88;;;5.73;100.00
43436;BME280;36399;51.444;-2.018;2023-02-16T01:31:12;101355.81;;;5.68;100.00
43436;BME280;36399;51.444;-2.018;2023-02-16T01:33:39;101363.69;;;5.69;100.00
43436;BME280;36399;51.444;-2.018;2023-02-16T01:36:18;101360.06;;;5.66;100.00
43436;BME280;36399;51.444;-2.018;2023-02-16T01:38:47;101370.25;;;5.61;100.00
43436;BME280;36399;51.444;-2.018;2023-02-16T01:41:28;101360.00;;;5.64;100.00
43436;BME280;36399;51.444;-2.018;2023-02-16T01:44:04;101360.94;;;5.66;100.00
43436;BME280;36399;51.444;-2.018;2023-02-16T01:49:22;101348.81;;;5.67;100.00
43436;BME280;36399;51.444;-2.018;2023-02-16T01:54:39;101331.25;;;5.81;100.00
43436;BME280;36399;51.444;-2.018;2023-02-16T01:59:40;101315.94;;;5.88;100.00
43436;BME280;36399;51.444;-2.018;2023-02-16T02:02:25;101311.81;;;5.92;100.00
43436;BME280;36399;51.444;-2.018;2023-02-16T02:04:54;101302.34;;;5.94;100.00
43436;BME280;36399;51.444;-2.018;2023-02-16T02:07:45;101307.34;;;6.09;100.00
43436;BME280;36399;51.444;-2.018;2023-02-16T02:10:30;101297.19;;;6.15;100.00
43436;BME280;36399;51.444;-2.018;2023-02-16T02:13:13;101309.31;;;6.14;100.00
43436;BME280;36399;51.444;-2.018;2023-02-16T02:15:41;101295.31;;;6.12;100.00
43436;BME280;36399;51.444;-2.018;2023-02-16T02:18:07;101299.97;;;6.19;100.00
43436;BME280;36399;51.444;-2.018;2023-02-16T02:24:21;101271.59;;;6.25;100.00
43436;BME280;36399;51.444;-2.018;2023-02-16T02:30:13;101262.00;;;6.24;100.00
43436;BME280;36399;51.444;-2.018;2023-02-16T02:38:15;101258.06;;;6.34;100.00
43436;BME280;36399;51.444;-2.018;2023-02-16T02:44:41;101235.59;;;6.38;100.00
43436;BME280;36399;51.444;-2.018;2023-02-16T02:47:10;101236.56;;;6.40;100.00
43436;BME280;36399;51.444;-2.018;2023-02-16T02:49:36;101240.00;;;6.39;100.00
43436;BME280;36399;51.444;-2.018;2023-02-16T02:52:02;101250.56;;;6.42;100.00
43436;BME280;36399;51.444;-2.018;2023-02-16T02:54:32;101245.28;;;6.40;100.00
43436;BME280;36399;51.444;-2.018;2023-02-16T02:57:32;101247.38;;;6.49;100.00
43436;BME280;36399;51.444;-2.018;2023-02-16T03:03:23;101232.34;;;6.64;100.00
43436;BME280;36399;51.444;-2.018;2023-02-16T03:05:59;101230.69;;;6.66;100.00
43436;BME280;36399;51.444;-2.018;2023-02-16T03:08:28;101227.84;;;6.60;100.00
43436;BME280;36399;51.444;-2.018;2023-02-16T03:13:53;101207.53;;;6.53;100.00
43436;BME280;36399;51.444;-2.018;2023-02-16T03:16:28;101203.53;;;6.61;100.00
43436;BME280;36399;51.444;-2.018;2023-02-16T03:18:56;101195.81;;;6.64;100.00
43436;BME280;36399;51.444;-2.018;2023-02-16T03:21:41;101188.06;;;6.65;100.00
43436;BME280;36399;51.444;-2.018;2023-02-16T03:24:29;101190.84;;;6.70;100.00
43436;BME280;36399;51.444;-2.018;2023-02-16T03:27:17;101190.13;;;6.74;100.00
43436;BME280;36399;51.444;-2.018;2023-02-16T03:30:05;101185.75;;;6.73;100.00
43436;BME280;36399;51.444;-2.018;2023-02-16T03:32:33;101181.28;;;6.71;100.00
43436;BME280;36399;51.444;-2.018;2023-02-16T03:34:59;101180.28;;;6.67;100.00
43436;BME280;36399;51.444;-2.018;2023-02-16T03:37:25;101172.47;;;6.67;100.00
43436;BME280;36399;51.444;-2.018;2023-02-16T03:39:52;101170.09;;;6.73;100.00
43436;BME280;36399;51.444;-2.018;2023-02-16T03:42:36;101169.97;;;6.70;100.00
43436;BME280;36399;51.444;-2.018;2023-02-16T03:45:02;101168.38;;;6.74;100.00
43436;BME280;36399;51.444;-2.018;2023-02-16T03:47:28;101161.59;;;6.77;100.00
43436;BME280;36399;51.444;-2.018;2023-02-16T03:49:54;101154.44;;;6.73;100.00
43436;BME280;36399;51.444;-2.018;2023-02-16T03:52:20;101149.34;;;6.76;100.00
43436;BME280;36399;51.444;-2.018;2023-02-16T03:54:46;101127.72;;;6.79;100.00
43436;BME280;36399;51.444;-2.018;2023-02-16T03:57:15;101133.06;;;6.82;100.00
43436;BME280;36399;51.444;-2.018;2023-02-16T03:59:41;101124.41;;;6.83;100.00
43436;BME280;36399;51.444;-2.018;2023-02-16T04:02:07;101129.69;;;6.84;100.00
43436;BME280;36399;51.444;-2.018;2023-02-16T04:04:33;101114.84;;;6.83;100.00
43436;BME280;36399;51.444;-2.018;2023-02-16T04:06:59;101119.41;;;6.89;100.00
43436;BME280;36399;51.444;-2.018;2023-02-16T04:09:25;101112.53;;;6.91;100.00
43436;BME280;36399;51.444;-2.018;2023-02-16T04:11:51;101106.53;;;6.93;100.00
43436;BME280;36399;51.444;-2.018;2023-02-16T04:14:35;101100.75;;;7.02;100.00
43436;BME280;36399;51.444;-2.018;2023-02-16T04:17:01;101098.31;;;7.07;100.00
43436;BME280;36399;51.444;-2.018;2023-02-16T04:19:28;101105.47;;;7.12;100.00
43436;BME280;36399;51.444;-2.018;2023-02-16T04:21:55;101090.88;;;7.17;100.00
43436;BME280;36399;51.444;-2.018;2023-02-16T04:24:21;101105.72;;;7.18;100.00
43436;BME280;36399;51.444;-2.018;2023-02-16T04:26:47;101097.03;;;7.19;100.00
43436;BME280;36399;51.444;-2.018;2023-02-16T04:29:14;101100.75;;;7.26;100.00
43436;BME280;36399;51.444;-2.018;2023-02-16T04:31:40;101095.59;;;7.27;100.00
43436;BME280;36399;51.444;-2.018;2023-02-16T04:34:06;101096.56;;;7.30;100.00
43436;BME280;36399;51.444;-2.018;2023-02-16T04:36:32;101118.47;;;7.33;100.00
43436;BME280;36399;51.444;-2.018;2023-02-16T04:38:59;101105.63;;;7.39;100.00
43436;BME280;36399;51.444;-2.018;2023-02-16T04:41:24;101097.16;;;7.46;100.00
43436;BME280;36399;51.444;-2.018;2023-02-16T04:43:52;101092.00;;;7.48;100.00
43436;BME280;36399;51.444;-2.018;2023-02-16T04:46:18;101082.44;;;7.48;100.00
43436;BME280;36399;51.444;-2.018;2023-02-16T04:48:45;101091.22;;;7.50;100.00
43436;BME280;36399;51.444;-2.018;2023-02-16T04:51:11;101085.09;;;7.50;100.00
43436;BME280;36399;51.444;-2.018;2023-02-16T04:53:37;101082.63;;;7.54;100.00
43436;BME280;36399;51.444;-2.018;2023-02-16T04:56:03;101086.03;;;7.52;100.00
43436;BME280;36399;51.444;-2.018;2023-02-16T04:58:29;101084.22;;;7.49;100.00
43436;BME280;36399;51.444;-2.018;2023-02-16T05:00:55;101079.91;;;7.51;100.00
43436;BME280;36399;51.444;-2.018;2023-02-16T05:03:21;101083.47;;;7.53;100.00
43436;BME280;36399;51.444;-2.018;2023-02-16T05:05:48;101070.31;;;7.50;100.00
43436;BME280;36399;51.444;-2.018;2023-02-16T05:08:13;101069.38;;;7.48;100.00
43436;BME280;36399;51.444;-2.018;2023-02-16T05:10:41;101082.53;;;7.51;100.00
43436;BME280;36399;51.444;-2.018;2023-02-16T05:13:09;101081.59;;;7.49;100.00
43436;BME280;36399;51.444;-2.018;2023-02-16T05:15:54;101066.75;;;7.48;100.00
43436;BME280;36399;51.444;-2.018;2023-02-16T05:18:20;101083.31;;;7.49;100.00
43436;BME280;36399;51.444;-2.018;2023-02-16T05:20:46;101083.38;;;7.50;100.00
43436;BME280;36399;51.444;-2.018;2023-02-16T05:23:31;101059.81;;;7.49;100.00
43436;BME280;36399;51.444;-2.018;2023-02-16T05:25:58;101079.09;;;7.52;100.00
43436;BME280;36399;51.444;-2.018;2023-02-16T05:28:24;101077.31;;;7.51;100.00
43436;BME280;36399;51.444;-2.018;2023-02-16T05:30:52;101073.91;;;7.54;100.00
43436;BME280;36399;51.444;-2.018;2023-02-16T05:33:18;101074.91;;;7.57;100.00
43436;BME280;36399;51.444;-2.018;2023-02-16T05:35:44;101074.66;;;7.50;100.00
43436;BME280;36399;51.444;-2.018;2023-02-16T05:38:10;101082.53;;;7.51;100.00
43436;BME280;36399;51.444;-2.018;2023-02-16T05:40:36;101072.19;;;7.54;100.00
43436;BME280;36399;51.444;-2.018;2023-02-16T05:43:02;101075.00;;;7.60;100.00
43436;BME280;36399;51.444;-2.018;2023-02-16T05:45:28;101060.13;;;7.58;100.00
43436;BME280;36399;51.444;-2.018;2023-02-16T05:47:54;101051.28;;;7.54;100.00
43436;BME280;36399;51.444;-2.018;2023-02-16T05:50:20;101042.50;;;7.52;100.00
43436;BME280;36399;51.444;-2.018;2023-02-16T05:52:46;101033.94;;;7.56;100.00
43436;BME280;36399;51.444;-2.018;2023-02-16T05:55:12;101041.03;;;7.60;100.00
43436;BME280;36399;51.444;-2.018;2023-02-16T05:57:38;101046.16;;;7.57;100.00
43436;BME280;36399;51.444;-2.018;2023-02-16T06:00:04;101040.94;;;7.57;100.00
43436;BME280;36399;51.444;-2.018;2023-02-16T06:02:30;101052.19;;;7.55;100.00
43436;BME280;36399;51.444;-2.018;2023-02-16T06:04:56;101043.59;;;7.59;100.00
43436;BME280;36399;51.444;-2.018;2023-02-16T06:07:22;101028.03;;;7.62;100.00
43436;BME280;36399;51.444;-2.018;2023-02-16T06:09:48;101052.44;;;7.63;100.00
43436;BME280;36399;51.444;-2.018;2023-02-16T06:12:14;101058.69;;;7.68;100.00
43436;BME280;36399;51.444;-2.018;2023-02-16T06:14:40;101061.25;;;7.66;100.00
43436;BME280;36399;51.444;-2.018;2023-02-16T06:17:06;101049.78;;;7.61;100.00
43436;BME280;36399;51.444;-2.018;2023-02-16T06:19:32;101048.25;;;7.68;100.00
43436;BME280;36399;51.444;-2.018;2023-02-16T06:21:58;101040.38;;;7.66;100.00
43436;BME280;36399;51.444;-2.018;2023-02-16T06:24:24;101057.03;;;7.70;100.00
43436;BME280;36399;51.444;-2.018;2023-02-16T06:26:50;101052.63;;;7.69;100.00
43436;BME280;36399;51.444;-2.018;2023-02-16T06:29:16;101055.25;;;7.69;100.00
43436;BME280;36399;51.444;-2.018;2023-02-16T06:31:41;101044.91;;;7.72;100.00
43436;BME280;36399;51.444;-2.018;2023-02-16T06:34:07;101046.56;;;7.70;100.00
43436;BME280;36399;51.444;-2.018;2023-02-16T06:36:35;101050.13;;;7.72;100.00
43436;BME280;36399;51.444;-2.018;2023-02-16T06:39:01;101051.00;;;7.72;100.00
43436;BME280;36399;51.444;-2.018;2023-02-16T06:41:27;101044.91;;;7.72;100.00
43436;BME280;36399;51.444;-2.018;2023-02-16T06:44:00;101048.34;;;7.71;100.00
43436;BME280;36399;51.444;-2.018;2023-02-16T06:46:27;101037.22;;;7.76;100.00
43436;BME280;36399;51.444;-2.018;2023-02-16T06:48:53;101045.09;;;7.78;100.00
43436;BME280;36399;51.444;-2.018;2023-02-16T06:51:19;101047.00;;;7.82;100.00
43436;BME280;36399;51.444;-2.018;2023-02-16T06:53:46;101051.28;;;7.80;100.00
43436;BME280;36399;51.444;-2.018;2023-02-16T06:56:12;101055.69;;;7.81;100.00
43436;BME280;36399;51.444;-2.018;2023-02-16T06:58:38;101054.06;;;7.84;100.00
43436;BME280;36399;51.444;-2.018;2023-02-16T07:01:04;101061.03;;;7.84;100.00
43436;BME280;36399;51.444;-2.018;2023-02-16T07:03:30;101068.03;;;7.85;100.00
43436;BME280;36399;51.444;-2.018;2023-02-16T07:05:56;101063.69;;;7.85;100.00
43436;BME280;36399;51.444;-2.018;2023-02-16T07:08:22;101066.25;;;7.84;100.00
43436;BME280;36399;51.444;-2.018;2023-02-16T07:10:48;101067.22;;;7.87;100.00
43436;BME280;36399;51.444;-2.018;2023-02-16T07:13:13;101073.34;;;7.88;100.00
43436;BME280;36399;51.444;-2.018;2023-02-16T07:15:39;101074.25;;;7.88;100.00
43436;BME280;36399;51.444;-2.018;2023-02-16T07:18:05;101077.91;;;7.94;100.00
43436;BME280;36399;51.444;-2.018;2023-02-16T07:20:31;101064.03;;;7.96;100.00
43436;BME280;36399;51.444;-2.018;2023-02-16T07:22:57;101074.59;;;7.99;100.00
43436;BME280;36399;51.444;-2.018;2023-02-16T07:25:23;101086.00;;;8.01;100.00
43436;BME280;36399;51.444;-2.018;2023-02-16T07:27:52;101068.63;;;8.03;100.00
43436;BME280;36399;51.444;-2.018;2023-02-16T07:30:22;101072.19;;;8.05;100.00
43436;BME280;36399;51.444;-2.018;2023-02-16T07:32:48;101076.72;;;8.11;100.00
43436;BME280;36399;51.444;-2.018;2023-02-16T07:35:14;101079.38;;;8.12;100.00
43436;BME280;36399;51.444;-2.018;2023-02-16T07:37:40;101086.38;;;8.13;100.00
43436;BME280;36399;51.444;-2.018;2023-02-16T07:40:06;101091.81;;;8.19;100.00
43436;BME280;36399;51.444;-2.018;2023-02-16T07:42:32;101086.78;;;8.26;100.00
43436;BME280;36399;51.444;-2.018;2023-02-16T07:44:58;101092.09;;;8.29;100.00
43436;BME280;36399;51.444;-2.018;2023-02-16T07:47:25;101088.56;;;8.27;100.00
43436;BME280;36399;51.444;-2.018;2023-02-16T07:49:50;101102.56;;;8.29;100.00
43436;BME280;36399;51.444;-2.018;2023-02-16T07:52:16;101090.59;;;8.34;100.00
43436;BME280;36399;51.444;-2.018;2023-02-16T07:54:42;101092.19;;;8.32;100.00
43436;BME280;36399;51.444;-2.018;2023-02-16T07:57:08;101094.94;;;8.33;100.00
43436;BME280;36399;51.444;-2.018;2023-02-16T07:59:34;101092.34;;;8.35;100.00
43436;BME280;36399;51.444;-2.018;2023-02-16T08:02:00;101099.38;;;8.36;100.00
43436;BME280;36399;51.444;-2.018;2023-02-16T08:04:26;101099.47;;;8.39;100.00
43436;BME280;36399;51.444;-2.018;2023-02-16T08:06:52;101098.81;;;8.46;100.00
43436;BME280;36399;51.444;-2.018;2023-02-16T08:09:19;101093.53;;;8.44;100.00
43436;BME280;36399;51.444;-2.018;2023-02-16T08:11:45;101111.91;;;8.46;100.00
43436;BME280;36399;51.444;-2.018;2023-02-16T08:14:11;101093.78;;;8.52;100.00
43436;BME280;36399;51.444;-2.018;2023-02-16T08:16:37;101103.59;;;8.59;100.00
43436;BME280;36399;51.444;-2.018;2023-02-16T08:19:03;101093.22;;;8.62;100.00
43436;BME280;36399;51.444;-2.018;2023-02-16T08:21:32;101092.41;;;8.65;100.00
43436;BME280;36399;51.444;-2.018;2023-02-16T08:24:01;101091.72;;;8.70;100.00
43436;BME280;36399;51.444;-2.018;2023-02-16T08:26:32;101097.03;;;8.73;100.00
43436;BME280;36399;51.444;-2.018;2023-02-16T08:28:59;101089.31;;;8.78;100.00
43436;BME280;36399;51.444;-2.018;2023-02-16T08:31:29;101095.53;;;8.81;100.00
43436;BME280;36399;51.444;-2.018;2023-02-16T08:33:57;101089.63;;;8.87;100.00
43436;BME280;36399;51.444;-2.018;2023-02-16T08:36:26;101087.13;;;8.92;100.00
43436;BME280;36399;51.444;-2.018;2023-02-16T08:38:57;101075.91;;;8.96;100.00
43436;BME280;36399;51.444;-2.018;2023-02-16T08:41:29;101085.63;;;9.00;100.00
43436;BME280;36399;51.444;-2.018;2023-02-16T08:43:55;101084.81;;;9.02;100.00
43436;BME280;36399;51.444;-2.018;2023-02-16T08:46:21;101101.72;;;9.13;100.00
43436;BME280;36399;51.444;-2.018;2023-02-16T08:48:47;101101.69;;;9.12;100.00
43436;BME280;36399;51.444;-2.018;2023-02-16T08:51:15;101096.53;;;9.15;100.00
43436;BME280;36399;51.444;-2.018;2023-02-16T08:53:45;101100.00;;;9.14;100.00
43436;BME280;36399;51.444;-2.018;2023-02-16T08:56:12;101090.50;;;9.17;100.00
43436;BME280;36399;51.444;-2.018;2023-02-16T08:58:39;101088.75;;;9.18;100.00
43436;BME280;36399;51.444;-2.018;2023-02-16T09:01:06;101086.22;;;9.21;100.00
43436;BME280;36399;51.444;-2.018;2023-02-16T09:03:36;101088.03;;;9.24;100.00
43436;BME280;36399;51.444;-2.018;2023-02-16T09:06:04;101086.31;;;9.24;100.00
43436;BME280;36399;51.444;-2.018;2023-02-16T09:08:30;101090.78;;;9.28;100.00
43436;BME280;36399;51.444;-2.018;2023-02-16T09:11:05;101087.38;;;9.31;100.00
43436;BME280;36399;51.444;-2.018;2023-02-16T09:13:35;101087.56;;;9.37;100.00
43436;BME280;36399;51.444;-2.018;2023-02-16T09:16:07;101085.16;;;9.44;100.00
43436;BME280;36399;51.444;-2.018;2023-02-16T09:18:35;101072.28;;;9.54;100.00
43436;BME280;36399;51.444;-2.018;2023-02-16T09:21:05;101070.00;;;9.66;100.00
43436;BME280;36399;51.444;-2.018;2023-02-16T09:23:32;101078.88;;;9.71;100.00
43436;BME280;36399;51.444;-2.018;2023-02-16T09:26:00;101069.50;;;9.80;100.00
43436;BME280;36399;51.444;-2.018;2023-02-16T09:28:28;101076.47;;;9.80;100.00
43436;BME280;36399;51.444;-2.018;2023-02-16T09:30:55;101083.72;;;9.89;100.00
43436;BME280;36399;51.444;-2.018;2023-02-16T09:33:21;101081.38;;;9.99;100.00
43436;BME280;36399;51.444;-2.018;2023-02-16T09:35:47;101072.00;;;10.10;100.00
43436;BME280;36399;51.444;-2.018;2023-02-16T09:38:14;101081.16;;;10.26;100.00
43436;BME280;36399;51.444;-2.018;2023-02-16T09:40:42;101073.34;;;10.28;100.00
43436;BME280;36399;51.444;-2.018;2023-02-16T09:45:52;101082.19;;;10.33;100.00
43436;BME280;36399;51.444;-2.018;2023-02-16T09:48:36;101075.41;;;10.41;100.00
43436;BME280;36399;51.444;-2.018;2023-02-16T09:51:04;101065.97;;;10.49;100.00
43436;BME280;36399;51.444;-2.018;2023-02-16T09:53:35;101085.28;;;10.51;100.00
43436;BME280;36399;51.444;-2.018;2023-02-16T09:58:56;101086.59;;;10.71;100.00
43436;BME280;36399;51.444;-2.018;2023-02-16T10:01:51;101067.31;;;10.69;100.00
43436;BME280;36399;51.444;-2.018;2023-02-16T10:10:01;101065.97;;;10.90;100.00
43436;BME280;36399;51.444;-2.018;2023-02-16T10:12:33;101061.00;;;11.02;100.00
43436;BME280;36399;51.444;-2.018;2023-02-16T10:15:11;101054.13;;;11.09;100.00
43436;BME280;36399;51.444;-2.018;2023-02-16T10:17:44;101057.94;;;11.24;100.00
43436;BME280;36399;51.444;-2.018;2023-02-16T10:25:10;101065.19;;;11.37;100.00
43436;BME280;36399;51.444;-2.018;2023-02-16T10:27:40;101065.91;;;11.29;100.00
43436;BME280;36399;51.444;-2.018;2023-02-16T10:35:37;101070.38;;;11.33;100.00
43436;BME280;36399;51.444;-2.018;2023-02-16T10:38:13;101072.44;;;11.48;100.00
43436;BME280;36399;51.444;-2.018;2023-02-16T10:43:41;101072.13;;;11.32;100.00
43436;BME280;36399;51.444;-2.018;2023-02-16T10:46:11;101073.94;;;11.36;100.00
43436;BME280;36399;51.444;-2.018;2023-02-16T10:48:40;101080.28;;;11.45;100.00
43436;BME280;36399;51.444;-2.018;2023-02-16T10:51:15;101075.91;;;11.47;100.00
43436;BME280;36399;51.444;-2.018;2023-02-16T10:53:49;101091.81;;;11.53;100.00
43436;BME280;36399;51.444;-2.018;2023-02-16T10:58:55;101095.25;;;11.49;100.00
43436;BME280;36399;51.444;-2.018;2023-02-16T11:01:33;101085.13;;;11.70;100.00
43436;BME280;36399;51.444;-2.018;2023-02-16T11:04:01;101079.03;;;11.73;100.00
43436;BME280;36399;51.444;-2.018;2023-02-16T11:06:27;101074.84;;;11.82;100.00
43436;BME280;36399;51.444;-2.018;2023-02-16T11:08:58;101074.78;;;11.79;100.00
43436;BME280;36399;51.444;-2.018;2023-02-16T11:11:35;101087.19;;;11.86;100.00
43436;BME280;36399;51.444;-2.018;2023-02-16T11:14:17;101085.69;;;12.00;100.00
43436;BME280;36399;51.444;-2.018;2023-02-16T11:16:45;101078.53;;;11.93;100.00
43436;BME280;36399;51.444;-2.018;2023-02-16T11:19:21;101079.00;;;12.21;100.00
43436;BME280;36399;51.444;-2.018;2023-02-16T11:21:52;101062.38;;;12.23;100.00
43436;BME280;36399;51.444;-2.018;2023-02-16T11:24:34;101065.72;;;12.12;100.00
43436;BME280;36399;51.444;-2.018;2023-02-16T11:27:18;101058.06;;;12.28;100.00
43436;BME280;36399;51.444;-2.018;2023-02-16T11:29:44;101048.78;;;12.52;100.00
43436;BME280;36399;51.444;-2.018;2023-02-16T11:32:12;101046.38;;;12.69;100.00
43436;BME280;36399;51.444;-2.018;2023-02-16T11:34:46;101042.28;;;12.93;100.00
43436;BME280;36399;51.444;-2.018;2023-02-16T11:37:28;101029.97;;;12.91;100.00
43436;BME280;36399;51.444;-2.018;2023-02-16T11:40:28;101027.50;;;13.03;100.00
43436;BME280;36399;51.444;-2.018;2023-02-16T11:42:54;101023.38;;;13.25;100.00
43436;BME280;36399;51.444;-2.018;2023-02-16T11:45:33;101017.09;;;13.15;100.00
43436;BME280;36399;51.444;-2.018;2023-02-16T11:48:05;101016.22;;;13.16;100.00
43436;BME280;36399;51.444;-2.018;2023-02-16T11:50:36;101018.84;;;13.13;100.00
43436;BME280;36399;51.444;-2.018;2023-02-16T11:55:43;101008.22;;;13.07;100.00
43436;BME280;36399;51.444;-2.018;2023-02-16T11:58:24;101009.81;;;12.96;100.00
43436;BME280;36399;51.444;-2.018;2023-02-16T12:03:35;101006.22;;;12.88;100.00
43436;BME280;36399;51.444;-2.018;2023-02-16T12:11:43;100994.25;;;13.14;100.00
43436;BME280;36399;51.444;-2.018;2023-02-16T12:19:26;100985.53;;;13.18;100.00
43436;BME280;36399;51.444;-2.018;2023-02-16T12:22:33;100978.41;;;13.11;100.00
43436;BME280;36399;51.444;-2.018;2023-02-16T12:28:04;100965.81;;;12.89;100.00
43436;BME280;36399;51.444;-2.018;2023-02-16T12:30:43;100986.81;;;12.80;100.00
43436;BME280;36399;51.444;-2.018;2023-02-16T12:38:26;100968.97;;;13.32;100.00
43436;BME280;36399;51.444;-2.018;2023-02-16T12:41:00;100977.09;;;13.53;100.00
43436;BME280;36399;51.444;-2.018;2023-02-16T12:43:37;100980.44;;;13.37;100.00
43436;BME280;36399;51.444;-2.018;2023-02-16T12:46:16;100993.63;;;13.37;100.00
43436;BME280;36399;51.444;-2.018;2023-02-16T12:48:49;100992.81;;;13.44;100.00
43436;BME280;36399;51.444;-2.018;2023-02-16T12:51:20;101001.50;;;13.34;100.00
43436;BME280;36399;51.444;-2.018;2023-02-16T12:53:55;100999.41;;;13.05;100.00
43436;BME280;36399;51.444;-2.018;2023-02-16T12:56:35;101004.53;;;12.94;100.00
43436;BME280;36399;51.444;-2.018;2023-02-16T12:59:16;101003.53;;;12.85;100.00
43436;BME280;36399;51.444;-2.018;2023-02-16T13:01:46;101008.50;;;12.59;100.00
43436;BME280;36399;51.444;-2.018;2023-02-16T13:04:37;100997.22;;;12.71;100.00
43436;BME280;36399;51.444;-2.018;2023-02-16T13:07:19;100994.94;;;13.00;100.00
43436;BME280;36399;51.444;-2.018;2023-02-16T13:12:39;101002.34;;;13.30;100.00
43436;BME280;36399;51.444;-2.018;2023-02-16T13:15:12;100997.06;;;13.30;100.00
43436;BME280;36399;51.444;-2.018;2023-02-16T13:17:43;100999.78;;;13.39;100.00
43436;BME280;36399;51.444;-2.018;2023-02-16T13:20:17;101012.03;;;13.32;100.00
43436;BME280;36399;51.444;-2.018;2023-02-16T13:33:55;101033.72;;;12.43;100.00
43436;BME280;36399;51.444;-2.018;2023-02-16T13:45:16;101021.69;;;12.62;100.00
43436;BME280;36399;51.444;-2.018;2023-02-16T13:47:42;101017.44;;;12.72;100.00
43436;BME280;36399;51.444;-2.018;2023-02-16T13:52:48;101012.66;;;13.11;100.00
43436;BME280;36399;51.444;-2.018;2023-02-16T14:00:35;101012.03;;;12.61;100.00
43436;BME280;36399;51.444;-2.018;2023-02-16T14:05:51;101033.06;;;12.00;100.00
43436;BME280;36399;51.444;-2.018;2023-02-16T14:08:27;101029.03;;;11.71;100.00
43436;BME280;36399;51.444;-2.018;2023-02-16T14:13:43;101028.38;;;11.36;100.00
43436;BME280;36399;51.444;-2.018;2023-02-16T14:16:25;101050.13;;;11.27;100.00
43436;BME280;36399;51.444;-2.018;2023-02-16T14:21:31;101049.97;;;11.20;100.00
43436;BME280;36399;51.444;-2.018;2023-02-16T14:23:59;101033.16;;;11.10;100.00
43436;BME280;36399;51.444;-2.018;2023-02-16T14:26:26;101021.25;;;11.30;100.00
43436;BME280;36399;51.444;-2.018;2023-02-16T14:31:42;101026.50;;;11.29;100.00
43436;BME280;36399;51.444;-2.018;2023-02-16T14:34:27;101034.59;;;11.41;100.00
43436;BME280;36399;51.444;-2.018;2023-02-16T14:37:32;101011.41;;;11.67;100.00
43436;BME280;36399;51.444;-2.018;2023-02-16T14:40:03;101019.53;;;11.78;100.00
43436;BME280;36399;51.444;-2.018;2023-02-16T14:42:31;101038.06;;;11.85;100.00
43436;BME280;36399;51.444;-2.018;2023-02-16T14:56:25;100998.66;;;12.47;100.00
43436;BME280;36399;51.444;-2.018;2023-02-16T14:59:31;100996.22;;;12.61;100.00
43436;BME280;36399;51.444;-2.018;2023-02-16T15:01:59;100999.16;;;12.85;100.00
43436;BME280;36399;51.444;-2.018;2023-02-16T15:04:29;101001.56;;;12.67;100.00
43436;BME280;36399;51.444;-2.018;2023-02-16T15:06:59;101005.66;;;13.15;100.00
43436;BME280;36399;51.444;-2.018;2023-02-16T15:09:29;101001.16;;;13.03;100.00